sensor_id;sensor_type;location;lat;lon;timestamp;pressure;altitude;pressure_sealevel;temperature
12007;BMP180;6062;47.294;12.182;2023-03-01T00:01:32;80089.00;;;-2.70
12007;BMP180;6062;47.294;12.182;2023-03-01T00:03:58;80093.00;;;-2.70
12007;BMP180;6062;47.294;12.182;2023-03-01T00:06:26;80083.00;;;-2.80
12007;BMP180;6062;47.294;12.182;2023-03-01T00:08:53;80091.00;;;-2.80
12007;BMP180;6062;47.294;12.182;2023-03-01T00:11:21;80086.00;;;-2.80
12007;BMP180;6062;47.294;12.182;2023-03-01T00:13:50;80082.00;;;-2.90
12007;BMP180;6062;47.294;12.182;2023-03-01T00:16:24;80086.00;;;-2.90
12007;BMP180;6062;47.294;12.182;2023-03-01T00:18:51;80083.00;;;-3.00
12007;BMP180;6062;47.294;12.182;2023-03-01T00:21:20;80077.00;;;-3.00
12007;BMP180;6062;47.294;12.182;2023-03-01T00:23:46;80081.00;;;-3.00
12007;BMP180;6062;47.294;12.182;2023-03-01T00:26:15;80081.00;;;-2.90
12007;BMP180;6062;47.294;12.182;2023-03-01T00:28:42;80071.00;;;-2.90
12007;BMP180;6062;47.294;12.182;2023-03-01T00:31:15;80066.00;;;-2.90
12007;BMP180;6062;47.294;12.182;2023-03-01T00:33:43;80070.00;;;-2.90
12007;BMP180;6062;47.294;12.182;2023-03-01T00:36:11;80068.00;;;-2.90
12007;BMP180;6062;47.294;12.182;2023-03-01T00:38:39;80065.00;;;-2.80
12007;BMP180;6062;47.294;12.182;2023-03-01T00:41:08;80071.00;;;-2.80
12007;BMP180;6062;47.294;12.182;2023-03-01T00:43:35;80067.00;;;-2.70
12007;BMP180;6062;47.294;12.182;2023-03-01T00:46:11;80082.00;;;-2.70
12007;BMP180;6062;47.294;12.182;2023-03-01T00:48:38;80082.00;;;-2.80
12007;BMP180;6062;47.294;12.182;2023-03-01T00:51:07;80077.00;;;-2.80
12007;BMP180;6062;47.294;12.182;2023-03-01T00:53:34;80062.00;;;-2.80
12007;BMP180;6062;47.294;12.182;2023-03-01T00:55:59;80061.00;;;-2.90
12007;BMP180;6062;47.294;12.182;2023-03-01T00:58:25;80063.00;;;-2.90
12007;BMP180;6062;47.294;12.182;2023-03-01T01:00:51;80057.00;;;-2.90
12007;BMP180;6062;47.294;12.182;2023-03-01T01:03:18;80053.00;;;-2.90
12007;BMP180;6062;47.294;12.182;2023-03-01T01:05:44;80053.00;;;-2.90
12007;BMP180;6062;47.294;12.182;2023-03-01T01:08:11;80059.00;;;-2.90
12007;BMP180;6062;47.294;12.182;2023-03-01T01:10:36;80051.00;;;-2.90
12007;BMP180;6062;47.294;12.182;2023-03-01T01:13:03;80042.00;;;-2.90
12007;BMP180;6062;47.294;12.182;2023-03-01T01:15:29;80046.00;;;-2.80
12007;BMP180;6062;47.294;12.182;2023-03-01T01:17:55;80039.00;;;-2.80
12007;BMP180;6062;47.294;12.182;2023-03-01T01:20:21;80023.00;;;-2.80
12007;BMP180;6062;47.294;12.182;2023-03-01T01:22:46;80034.00;;;-2.70
12007;BMP180;6062;47.294;12.182;2023-03-01T01:25:12;80015.00;;;-2.70
12007;BMP180;6062;47.294;12.182;2023-03-01T01:27:37;80016.00;;;-2.70
12007;BMP180;6062;47.294;12.182;2023-03-01T01:30:05;80015.00;;;-2.60
12007;BMP180;6062;47.294;12.182;2023-03-01T01:32:30;80016.00;;;-2.50
12007;BMP180;6062;47.294;12.182;2023-03-01T01:34:56;80016.00;;;-2.40
12007;BMP180;6062;47.294;12.182;2023-03-01T01:37:22;80029.00;;;-2.40
12007;BMP180;6062;47.294;12.182;2023-03-01T01:39:48;80024.00;;;-2.40
12007;BMP180;6062;47.294;12.182;2023-03-01T01:42:17;80018.00;;;-2.40
12007;BMP180;6062;47.294;12.182;2023-03-01T01:44:46;80008.00;;;-2.40
12007;BMP180;6062;47.294;12.182;2023-03-01T01:47:20;80007.00;;;-2.40
12007;BMP180;6062;47.294;12.182;2023-03-01T01:49:55;80002.00;;;-2.50
12007;BMP180;6062;47.294;12.182;2023-03-01T01:52:34;80018.00;;;-2.50
12007;BMP180;6062;47.294;12.182;2023-03-01T01:55:11;80001.00;;;-2.50
12007;BMP180;6062;47.294;12.182;2023-03-01T01:57:42;80002.00;;;-2.60
12007;BMP180;6062;47.294;12.182;2023-03-01T02:00:18;79998.00;;;-2.60
12007;BMP180;6062;47.294;12.182;2023-03-01T02:02:50;79998.00;;;-2.60
12007;BMP180;6062;47.294;12.182;2023-03-01T02:05:45;80003.00;;;-2.60
12007;BMP180;6062;47.294;12.182;2023-03-01T02:08:14;79990.00;;;-2.50
12007;BMP180;6062;47.294;12.182;2023-03-01T02:10:41;79993.00;;;-2.40
12007;BMP180;6062;47.294;12.182;2023-03-01T02:13:08;79996.00;;;-2.30
12007;BMP180;6062;47.294;12.182;2023-03-01T02:15:36;79997.00;;;-2.20
12007;BMP180;6062;47.294;12.182;2023-03-01T02:18:04;79989.00;;;-2.10
12007;BMP180;6062;47.294;12.182;2023-03-01T02:23:18;79996.00;;;-1.90
12007;BMP180;6062;47.294;12.182;2023-03-01T02:30:59;79979.00;;;-1.70
12007;BMP180;6062;47.294;12.182;2023-03-01T02:33:45;79990.00;;;-1.70
12007;BMP180;6062;47.294;12.182;2023-03-01T02:36:19;79988.00;;;-1.70
12007;BMP180;6062;47.294;12.182;2023-03-01T02:38:48;79980.00;;;-1.70
12007;BMP180;6062;47.294;12.182;2023-03-01T02:41:19;79973.00;;;-1.70
12007;BMP180;6062;47.294;12.182;2023-03-01T02:43:45;79972.00;;;-1.60
12007;BMP180;6062;47.294;12.182;2023-03-01T02:46:21;79983.00;;;-1.60
12007;BMP180;6062;47.294;12.182;2023-03-01T02:48:52;79979.00;;;-1.60
12007;BMP180;6062;47.294;12.182;2023-03-01T02:51:38;79973.00;;;-1.70
12007;BMP180;6062;47.294;12.182;2023-03-01T02:54:40;79978.00;;;-1.70
12007;BMP180;6062;47.294;12.182;2023-03-01T02:57:03;79969.00;;;-1.80
12007;BMP180;6062;47.294;12.182;2023-03-01T02:59:33;79966.00;;;-1.80
12007;BMP180;6062;47.294;12.182;2023-03-01T03:02:06;79961.00;;;-1.80
12007;BMP180;6062;47.294;12.182;2023-03-01T03:04:31;79961.00;;;-1.80
12007;BMP180;6062;47.294;12.182;2023-03-01T03:06:57;79949.00;;;-1.80
12007;BMP180;6062;47.294;12.182;2023-03-01T03:09:23;79951.00;;;-1.70
12007;BMP180;6062;47.294;12.182;2023-03-01T03:11:49;79951.00;;;-1.70
12007;BMP180;6062;47.294;12.182;2023-03-01T03:14:16;79956.00;;;-1.60
12007;BMP180;6062;47.294;12.182;2023-03-01T03:16:50;79960.00;;;-1.50
12007;BMP180;6062;47.294;12.182;2023-03-01T03:19:17;79967.00;;;-1.40
12007;BMP180;6062;47.294;12.182;2023-03-01T03:21:43;79968.00;;;-1.30
12007;BMP180;6062;47.294;12.182;2023-03-01T03:24:09;79966.00;;;-1.30
12007;BMP180;6062;47.294;12.182;2023-03-01T03:26:35;79959.00;;;-1.30
12007;BMP180;6062;47.294;12.182;2023-03-01T03:29:01;79966.00;;;-1.40
12007;BMP180;6062;47.294;12.182;2023-03-01T03:31:27;79960.00;;;-1.40
12007;BMP180;6062;47.294;12.182;2023-03-01T03:33:54;79944.00;;;-1.40
12007;BMP180;6062;47.294;12.182;2023-03-01T03:36:23;79948.00;;;-1.40
12007;BMP180;6062;47.294;12.182;2023-03-01T03:38:49;79945.00;;;-1.40
12007;BMP180;6062;47.294;12.182;2023-03-01T03:41:16;79941.00;;;-1.50
12007;BMP180;6062;47.294;12.182;2023-03-01T03:43:42;79939.00;;;-1.50
12007;BMP180;6062;47.294;12.182;2023-03-01T03:46:12;79943.00;;;-1.60
12007;BMP180;6062;47.294;12.182;2023-03-01T03:48:42;79938.00;;;-1.60
12007;BMP180;6062;47.294;12.182;2023-03-01T03:51:11;79942.00;;;-1.70
12007;BMP180;6062;47.294;12.182;2023-03-01T03:53:38;79948.00;;;-1.70
12007;BMP180;6062;47.294;12.182;2023-03-01T03:56:04;79941.00;;;-1.70
12007;BMP180;6062;47.294;12.182;2023-03-01T03:58:30;79935.00;;;-1.70
12007;BMP180;6062;47.294;12.182;2023-03-01T04:00:56;79934.00;;;-1.70
12007;BMP180;6062;47.294;12.182;2023-03-01T04:03:25;79937.00;;;-1.70
12007;BMP180;6062;47.294;12.182;2023-03-01T04:05:52;79941.00;;;-1.60
12007;BMP180;6062;47.294;12.182;2023-03-01T04:08:21;79942.00;;;-1.60
12007;BMP180;6062;47.294;12.182;2023-03-01T04:10:52;79943.00;;;-1.60
12007;BMP180;6062;47.294;12.182;2023-03-01T04:13:22;79929.00;;;-1.60
12007;BMP180;6062;47.294;12.182;2023-03-01T04:15:52;79939.00;;;-1.60
12007;BMP180;6062;47.294;12.182;2023-03-01T04:18:21;79938.00;;;-1.60
12007;BMP180;6062;47.294;12.182;2023-03-01T04:20:47;79937.00;;;-1.60
12007;BMP180;6062;47.294;12.182;2023-03-01T04:23:17;79932.00;;;-1.60
12007;BMP180;6062;47.294;12.182;2023-03-01T04:25:52;79933.00;;;-1.60
12007;BMP180;6062;47.294;12.182;2023-03-01T04:28:25;79939.00;;;-1.60
12007;BMP180;6062;47.294;12.182;2023-03-01T04:30:52;79934.00;;;-1.60
12007;BMP180;6062;47.294;12.182;2023-03-01T04:33:18;79931.00;;;-1.70
12007;BMP180;6062;47.294;12.182;2023-03-01T04:35:44;79934.00;;;-1.60
12007;BMP180;6062;47.294;12.182;2023-03-01T04:38:10;79938.00;;;-1.60
12007;BMP180;6062;47.294;12.182;2023-03-01T04:40:37;79934.00;;;-1.60
12007;BMP180;6062;47.294;12.182;2023-03-01T04:43:03;79943.00;;;-1.60
12007;BMP180;6062;47.294;12.182;2023-03-01T04:45:29;79927.00;;;-1.50
12007;BMP180;6062;47.294;12.182;2023-03-01T04:47:56;79931.00;;;-1.50
12007;BMP180;6062;47.294;12.182;2023-03-01T04:50:24;79925.00;;;-1.50
12007;BMP180;6062;47.294;12.182;2023-03-01T04:52:51;79929.00;;;-1.50
12007;BMP180;6062;47.294;12.182;2023-03-01T04:55:18;79936.00;;;-1.50
12007;BMP180;6062;47.294;12.182;2023-03-01T04:57:43;79916.00;;;-1.50
12007;BMP180;6062;47.294;12.182;2023-03-01T05:00:13;79919.00;;;-1.50
12007;BMP180;6062;47.294;12.182;2023-03-01T05:03:00;79921.00;;;-1.60
12007;BMP180;6062;47.294;12.182;2023-03-01T05:05:30;79926.00;;;-1.60
12007;BMP180;6062;47.294;12.182;2023-03-01T05:07:59;79931.00;;;-1.60
12007;BMP180;6062;47.294;12.182;2023-03-01T05:10:28;79933.00;;;-1.60
12007;BMP180;6062;47.294;12.182;2023-03-01T05:12:56;79932.00;;;-1.60
12007;BMP180;6062;47.294;12.182;2023-03-01T05:15:23;79928.00;;;-1.60
12007;BMP180;6062;47.294;12.182;2023-03-01T05:17:55;79925.00;;;-1.60
12007;BMP180;6062;47.294;12.182;2023-03-01T05:20:24;79923.00;;;-1.60
12007;BMP180;6062;47.294;12.182;2023-03-01T05:22:58;79917.00;;;-1.60
12007;BMP180;6062;47.294;12.182;2023-03-01T05:25:25;79923.00;;;-1.60
12007;BMP180;6062;47.294;12.182;2023-03-01T05:27:51;79929.00;;;-1.60
12007;BMP180;6062;47.294;12.182;2023-03-01T05:30:17;79926.00;;;-1.60
12007;BMP180;6062;47.294;12.182;2023-03-01T05:32:50;79925.00;;;-1.50
12007;BMP180;6062;47.294;12.182;2023-03-01T05:35:23;79928.00;;;-1.50
12007;BMP180;6062;47.294;12.182;2023-03-01T05:37:49;79923.00;;;-1.40
12007;BMP180;6062;47.294;12.182;2023-03-01T05:40:20;79920.00;;;-1.40
12007;BMP180;6062;47.294;12.182;2023-03-01T05:42:52;79914.00;;;-1.40
12007;BMP180;6062;47.294;12.182;2023-03-01T05:45:20;79919.00;;;-1.40
12007;BMP180;6062;47.294;12.182;2023-03-01T05:47:49;79919.00;;;-1.50
12007;BMP180;6062;47.294;12.182;2023-03-01T05:50:27;79927.00;;;-1.50
12007;BMP180;6062;47.294;12.182;2023-03-01T05:53:01;79922.00;;;-1.50
12007;BMP180;6062;47.294;12.182;2023-03-01T05:55:29;79918.00;;;-1.50
12007;BMP180;6062;47.294;12.182;2023-03-01T05:57:58;79917.00;;;-1.50
12007;BMP180;6062;47.294;12.182;2023-03-01T06:00:24;79914.00;;;-1.50
12007;BMP180;6062;47.294;12.182;2023-03-01T06:02:50;79911.00;;;-1.50
12007;BMP180;6062;47.294;12.182;2023-03-01T06:05:17;79911.00;;;-1.50
12007;BMP180;6062;47.294;12.182;2023-03-01T06:07:43;79922.00;;;-1.50
12007;BMP180;6062;47.294;12.182;2023-03-01T06:10:10;79907.00;;;-1.50
12007;BMP180;6062;47.294;12.182;2023-03-01T06:12:39;79903.00;;;-1.40
12007;BMP180;6062;47.294;12.182;2023-03-01T06:15:07;79902.00;;;-1.20
12007;BMP180;6062;47.294;12.182;2023-03-01T06:17:36;79908.00;;;-0.90
12007;BMP180;6062;47.294;12.182;2023-03-01T06:20:18;79914.00;;;-0.40
12007;BMP180;6062;47.294;12.182;2023-03-01T06:22:44;79915.00;;;0.20
12007;BMP180;6062;47.294;12.182;2023-03-01T06:25:14;79927.00;;;0.80
12007;BMP180;6062;47.294;12.182;2023-03-01T06:27:42;79924.00;;;1.40
12007;BMP180;6062;47.294;12.182;2023-03-01T06:30:10;79931.00;;;2.10
12007;BMP180;6062;47.294;12.182;2023-03-01T06:32:37;79932.00;;;2.80
12007;BMP180;6062;47.294;12.182;2023-03-01T06:35:04;79938.00;;;3.60
12007;BMP180;6062;47.294;12.182;2023-03-01T06:37:30;79929.00;;;4.40
12007;BMP180;6062;47.294;12.182;2023-03-01T06:39:56;79929.00;;;5.20
12007;BMP180;6062;47.294;12.182;2023-03-01T06:42:21;79929.00;;;6.00
12007;BMP180;6062;47.294;12.182;2023-03-01T06:44:47;79938.00;;;6.70
12007;BMP180;6062;47.294;12.182;2023-03-01T06:47:13;79934.00;;;7.40
12007;BMP180;6062;47.294;12.182;2023-03-01T06:49:38;79939.00;;;8.20
12007;BMP180;6062;47.294;12.182;2023-03-01T06:52:04;79925.00;;;8.90
12007;BMP180;6062;47.294;12.182;2023-03-01T06:54:30;79943.00;;;9.50
12007;BMP180;6062;47.294;12.182;2023-03-01T06:56:55;79938.00;;;10.00
12007;BMP180;6062;47.294;12.182;2023-03-01T06:59:21;79939.00;;;10.60
12007;BMP180;6062;47.294;12.182;2023-03-01T07:01:47;79935.00;;;11.20
12007;BMP180;6062;47.294;12.182;2023-03-01T07:04:13;79941.00;;;11.80
12007;BMP180;6062;47.294;12.182;2023-03-01T07:06:39;79938.00;;;12.50
12007;BMP180;6062;47.294;12.182;2023-03-01T07:09:05;79938.00;;;13.10
12007;BMP180;6062;47.294;12.182;2023-03-01T07:11:31;79937.00;;;13.80
12007;BMP180;6062;47.294;12.182;2023-03-01T07:13:56;79931.00;;;14.40
12007;BMP180;6062;47.294;12.182;2023-03-01T07:16:23;79926.00;;;15.10
12007;BMP180;6062;47.294;12.182;2023-03-01T07:18:49;79928.00;;;15.70
12007;BMP180;6062;47.294;12.182;2023-03-01T07:21:15;79934.00;;;16.30
12007;BMP180;6062;47.294;12.182;2023-03-01T07:23:42;79941.00;;;16.90
12007;BMP180;6062;47.294;12.182;2023-03-01T07:26:07;79939.00;;;17.50
12007;BMP180;6062;47.294;12.182;2023-03-01T07:28:33;79946.00;;;18.00
12007;BMP180;6062;47.294;12.182;2023-03-01T07:31:06;79946.00;;;18.60
12007;BMP180;6062;47.294;12.182;2023-03-01T07:33:32;79954.00;;;19.30
12007;BMP180;6062;47.294;12.182;2023-03-01T07:36:00;79955.00;;;19.80
12007;BMP180;6062;47.294;12.182;2023-03-01T07:38:28;79957.00;;;20.30
12007;BMP180;6062;47.294;12.182;2023-03-01T07:40:58;79956.00;;;20.80
12007;BMP180;6062;47.294;12.182;2023-03-01T07:43:24;79957.00;;;21.20
12007;BMP180;6062;47.294;12.182;2023-03-01T07:45:50;79950.00;;;21.60
12007;BMP180;6062;47.294;12.182;2023-03-01T07:48:15;79968.00;;;22.10
12007;BMP180;6062;47.294;12.182;2023-03-01T07:50:41;79969.00;;;22.60
12007;BMP180;6062;47.294;12.182;2023-03-01T07:53:07;79963.00;;;23.00
12007;BMP180;6062;47.294;12.182;2023-03-01T07:55:33;79965.00;;;23.50
12007;BMP180;6062;47.294;12.182;2023-03-01T07:57:59;79969.00;;;24.00
12007;BMP180;6062;47.294;12.182;2023-03-01T08:00:24;79967.00;;;24.20
12007;BMP180;6062;47.294;12.182;2023-03-01T08:02:50;79971.00;;;24.10
12007;BMP180;6062;47.294;12.182;2023-03-01T08:05:16;79967.00;;;23.50
12007;BMP180;6062;47.294;12.182;2023-03-01T08:07:42;79965.00;;;23.10
12007;BMP180;6062;47.294;12.182;2023-03-01T08:10:09;79955.00;;;23.00
12007;BMP180;6062;47.294;12.182;2023-03-01T08:12:34;79958.00;;;23.30
12007;BMP180;6062;47.294;12.182;2023-03-01T08:15:00;79964.00;;;23.80
12007;BMP180;6062;47.294;12.182;2023-03-01T08:17:26;79969.00;;;24.30
12007;BMP180;6062;47.294;12.182;2023-03-01T08:19:51;79965.00;;;24.70
12007;BMP180;6062;47.294;12.182;2023-03-01T08:22:17;79969.00;;;25.10
12007;BMP180;6062;47.294;12.182;2023-03-01T08:24:43;79979.00;;;25.30
12007;BMP180;6062;47.294;12.182;2023-03-01T08:27:08;79980.00;;;25.40
12007;BMP180;6062;47.294;12.182;2023-03-01T08:29:34;79989.00;;;25.60
12007;BMP180;6062;47.294;12.182;2023-03-01T08:32:00;79984.00;;;25.80
12007;BMP180;6062;47.294;12.182;2023-03-01T08:34:26;79978.00;;;25.90
12007;BMP180;6062;47.294;12.182;2023-03-01T08:36:52;79984.00;;;26.00
12007;BMP180;6062;47.294;12.182;2023-03-01T08:39:19;79983.00;;;26.10
12007;BMP180;6062;47.294;12.182;2023-03-01T08:41:46;79987.00;;;26.30
12007;BMP180;6062;47.294;12.182;2023-03-01T08:44:14;79976.00;;;26.40
12007;BMP180;6062;47.294;12.182;2023-03-01T08:46:42;79979.00;;;26.60
12007;BMP180;6062;47.294;12.182;2023-03-01T08:49:14;79989.00;;;26.80
12007;BMP180;6062;47.294;12.182;2023-03-01T08:51:40;79984.00;;;26.90
12007;BMP180;6062;47.294;12.182;2023-03-01T08:54:12;79989.00;;;26.90
12007;BMP180;6062;47.294;12.182;2023-03-01T08:56:38;79999.00;;;26.60
12007;BMP180;6062;47.294;12.182;2023-03-01T08:59:04;79999.00;;;26.30
12007;BMP180;6062;47.294;12.182;2023-03-01T09:01:30;80003.00;;;26.00
12007;BMP180;6062;47.294;12.182;2023-03-01T09:03:56;79994.00;;;25.60
12007;BMP180;6062;47.294;12.182;2023-03-01T09:06:21;79994.00;;;24.80
12007;BMP180;6062;47.294;12.182;2023-03-01T09:08:49;79997.00;;;24.30
12007;BMP180;6062;47.294;12.182;2023-03-01T09:11:19;79989.00;;;24.20
12007;BMP180;6062;47.294;12.182;2023-03-01T09:13:47;80002.00;;;24.30
12007;BMP180;6062;47.294;12.182;2023-03-01T09:16:18;79998.00;;;24.60
12007;BMP180;6062;47.294;12.182;2023-03-01T09:18:48;79997.00;;;24.80
12007;BMP180;6062;47.294;12.182;2023-03-01T09:21:16;80005.00;;;24.90
12007;BMP180;6062;47.294;12.182;2023-03-01T09:23:47;80006.00;;;25.00
12007;BMP180;6062;47.294;12.182;2023-03-01T09:26:19;80003.00;;;25.10
12007;BMP180;6062;47.294;12.182;2023-03-01T09:28:47;80003.00;;;25.30
12007;BMP180;6062;47.294;12.182;2023-03-01T09:31:15;80001.00;;;25.40
12007;BMP180;6062;47.294;12.182;2023-03-01T09:33:42;80002.00;;;25.50
12007;BMP180;6062;47.294;12.182;2023-03-01T09:36:15;80002.00;;;25.70
12007;BMP180;6062;47.294;12.182;2023-03-01T09:38:41;79993.00;;;25.90
12007;BMP180;6062;47.294;12.182;2023-03-01T09:41:26;80004.00;;;26.00
12007;BMP180;6062;47.294;12.182;2023-03-01T09:46:47;80002.00;;;26.50
12007;BMP180;6062;47.294;12.182;2023-03-01T09:49:23;80010.00;;;26.80
12007;BMP180;6062;47.294;12.182;2023-03-01T09:54:49;80019.00;;;27.30
12007;BMP180;6062;47.294;12.182;2023-03-01T09:57:20;80008.00;;;27.50
12007;BMP180;6062;47.294;12.182;2023-03-01T10:03:12;79995.00;;;27.80
12007;BMP180;6062;47.294;12.182;2023-03-01T10:09:10;80004.00;;;28.30
12007;BMP180;6062;47.294;12.182;2023-03-01T10:11:43;79994.00;;;27.90
12007;BMP180;6062;47.294;12.182;2023-03-01T10:14:30;79993.00;;;27.00
12007;BMP180;6062;47.294;12.182;2023-03-01T10:17:08;79997.00;;;26.10
12007;BMP180;6062;47.294;12.182;2023-03-01T10:19:40;79998.00;;;25.20
12007;BMP180;6062;47.294;12.182;2023-03-01T10:22:28;79988.00;;;24.00
12007;BMP180;6062;47.294;12.182;2023-03-01T10:24:58;79985.00;;;23.10
12007;BMP180;6062;47.294;12.182;2023-03-01T10:27:46;79985.00;;;22.30
12007;BMP180;6062;47.294;12.182;2023-03-01T10:30:22;79983.00;;;21.60
12007;BMP180;6062;47.294;12.182;2023-03-01T10:32:51;79980.00;;;21.10
12007;BMP180;6062;47.294;12.182;2023-03-01T10:35:28;79974.00;;;20.60
12007;BMP180;6062;47.294;12.182;2023-03-01T10:38:14;79985.00;;;20.30
12007;BMP180;6062;47.294;12.182;2023-03-01T10:41:04;79973.00;;;19.80
12007;BMP180;6062;47.294;12.182;2023-03-01T10:43:50;79973.00;;;18.90
12007;BMP180;6062;47.294;12.182;2023-03-01T10:46:34;79960.00;;;17.80
12007;BMP180;6062;47.294;12.182;2023-03-01T10:49:22;79965.00;;;17.10
12007;BMP180;6062;47.294;12.182;2023-03-01T10:51:51;79957.00;;;16.50
12007;BMP180;6062;47.294;12.182;2023-03-01T10:56:56;79953.00;;;16.30
12007;BMP180;6062;47.294;12.182;2023-03-01T10:59:37;79948.00;;;16.90
12007;BMP180;6062;47.294;12.182;2023-03-01T11:04:35;79946.00;;;18.30
12007;BMP180;6062;47.294;12.182;2023-03-01T11:07:02;79938.00;;;18.70
12007;BMP180;6062;47.294;12.182;2023-03-01T11:09:32;79934.00;;;19.20
12007;BMP180;6062;47.294;12.182;2023-03-01T11:12:13;79933.00;;;19.80
12007;BMP180;6062;47.294;12.182;2023-03-01T11:14:52;79944.00;;;20.50
12007;BMP180;6062;47.294;12.182;2023-03-01T11:17:27;79941.00;;;21.10
12007;BMP180;6062;47.294;12.182;2023-03-01T11:23:11;79953.00;;;21.90
12007;BMP180;6062;47.294;12.182;2023-03-01T11:25:42;79963.00;;;22.20
12007;BMP180;6062;47.294;12.182;2023-03-01T11:28:17;79964.00;;;22.40
12007;BMP180;6062;47.294;12.182;2023-03-01T11:31:03;79958.00;;;22.60
12007;BMP180;6062;47.294;12.182;2023-03-01T11:33:50;79957.00;;;22.80
12007;BMP180;6062;47.294;12.182;2023-03-01T11:36:35;79950.00;;;22.90
12007;BMP180;6062;47.294;12.182;2023-03-01T11:39:38;79944.00;;;23.10
12007;BMP180;6062;47.294;12.182;2023-03-01T11:42:54;79943.00;;;23.40
12007;BMP180;6062;47.294;12.182;2023-03-01T11:45:24;79952.00;;;23.60
12007;BMP180;6062;47.294;12.182;2023-03-01T11:48:44;79955.00;;;23.70
12007;BMP180;6062;47.294;12.182;2023-03-01T11:51:51;79960.00;;;23.70
12007;BMP180;6062;47.294;12.182;2023-03-01T11:57:46;79960.00;;;21.90
12007;BMP180;6062;47.294;12.182;2023-03-01T12:00:41;79971.00;;;20.50
12007;BMP180;6062;47.294;12.182;2023-03-01T12:03:25;79966.00;;;18.80
12007;BMP180;6062;47.294;12.182;2023-03-01T12:06:39;79955.00;;;17.00
12007;BMP180;6062;47.294;12.182;2023-03-01T12:15:29;79964.00;;;13.70
12007;BMP180;6062;47.294;12.182;2023-03-01T12:18:12;79978.00;;;13.00
12007;BMP180;6062;47.294;12.182;2023-03-01T12:23:40;79963.00;;;11.60
12007;BMP180;6062;47.294;12.182;2023-03-01T12:26:54;79960.00;;;10.80
12007;BMP180;6062;47.294;12.182;2023-03-01T12:32:34;79950.00;;;9.80
12007;BMP180;6062;47.294;12.182;2023-03-01T12:49:08;79947.00;;;8.80
12007;BMP180;6062;47.294;12.182;2023-03-01T12:51:38;79946.00;;;8.50
12007;BMP180;6062;47.294;12.182;2023-03-01T12:54:32;79947.00;;;8.20
12007;BMP180;6062;47.294;12.182;2023-03-01T12:57:40;79930.00;;;7.90
12007;BMP180;6062;47.294;12.182;2023-03-01T13:03:10;79927.00;;;7.50
12007;BMP180;6062;47.294;12.182;2023-03-01T13:06:15;79928.00;;;7.40
12007;BMP180;6062;47.294;12.182;2023-03-01T13:08:58;79922.00;;;7.30
12007;BMP180;6062;47.294;12.182;2023-03-01T13:11:28;79916.00;;;7.20
12007;BMP180;6062;47.294;12.182;2023-03-01T13:16:51;79922.00;;;7.00
12007;BMP180;6062;47.294;12.182;2023-03-01T13:19:26;79924.00;;;6.90
12007;BMP180;6062;47.294;12.182;2023-03-01T13:21:54;79907.00;;;6.80
12007;BMP180;6062;47.294;12.182;2023-03-01T13:24:39;79917.00;;;6.80
12007;BMP180;6062;47.294;12.182;2023-03-01T13:29:57;79927.00;;;6.50
12007;BMP180;6062;47.294;12.182;2023-03-01T13:32:32;79927.00;;;6.30
12007;BMP180;6062;47.294;12.182;2023-03-01T13:37:41;79910.00;;;6.10
12007;BMP180;6062;47.294;12.182;2023-03-01T13:42:49;79925.00;;;5.90
12007;BMP180;6062;47.294;12.182;2023-03-01T13:45:34;79929.00;;;5.80
12007;BMP180;6062;47.294;12.182;2023-03-01T13:48:29;79925.00;;;5.60
12007;BMP180;6062;47.294;12.182;2023-03-01T13:51:01;79927.00;;;5.50
12007;BMP180;6062;47.294;12.182;2023-03-01T13:53:33;79921.00;;;5.50
12007;BMP180;6062;47.294;12.182;2023-03-01T13:56:09;79915.00;;;5.40
12007;BMP180;6062;47.294;12.182;2023-03-01T13:59:13;79910.00;;;5.40
12007;BMP180;6062;47.294;12.182;2023-03-01T14:01:40;79907.00;;;5.30
12007;BMP180;6062;47.294;12.182;2023-03-01T14:04:29;79906.00;;;5.30
12007;BMP180;6062;47.294;12.182;2023-03-01T14:07:32;79908.00;;;5.40
12007;BMP180;6062;47.294;12.182;2023-03-01T14:10:02;79904.00;;;5.40
12007;BMP180;6062;47.294;12.182;2023-03-01T14:12:54;79909.00;;;5.60
12007;BMP180;6062;47.294;12.182;2023-03-01T14:15:42;79899.00;;;5.70
12007;BMP180;6062;47.294;12.182;2023-03-01T14:18:31;79907.00;;;5.90
12007;BMP180;6062;47.294;12.182;2023-03-01T14:20:59;79910.00;;;5.90
12007;BMP180;6062;47.294;12.182;2023-03-01T14:23:25;79907.00;;;5.90
12007;BMP180;6062;47.294;12.182;2023-03-01T14:25:55;79903.00;;;5.80
12007;BMP180;6062;47.294;12.182;2023-03-01T14:28:26;79907.00;;;5.70
12007;BMP180;6062;47.294;12.182;2023-03-01T14:30:55;79908.00;;;5.60
12007;BMP180;6062;47.294;12.182;2023-03-01T14:33:24;79912.00;;;5.50
12007;BMP180;6062;47.294;12.182;2023-03-01T14:36:01;79904.00;;;5.40
12007;BMP180;6062;47.294;12.182;2023-03-01T14:38:43;79905.00;;;5.40
12007;BMP180;6062;47.294;12.182;2023-03-01T14:41:29;79911.00;;;5.40
12007;BMP180;6062;47.294;12.182;2023-03-01T14:44:03;79911.00;;;5.30
12007;BMP180;6062;47.294;12.182;2023-03-01T14:46:37;79912.00;;;5.30
12007;BMP180;6062;47.294;12.182;2023-03-01T14:49:13;79910.00;;;5.30
12007;BMP180;6062;47.294;12.182;2023-03-01T14:51:46;79911.00;;;5.30
12007;BMP180;6062;47.294;12.182;2023-03-01T14:54:31;79910.00;;;5.40
12007;BMP180;6062;47.294;12.182;2023-03-01T14:57:01;79900.00;;;5.60
12007;BMP180;6062;47.294;12.182;2023-03-01T14:59:28;79889.00;;;5.70
12007;BMP180;6062;47.294;12.182;2023-03-01T15:01:57;79902.00;;;5.90
12007;BMP180;6062;47.294;12.182;2023-03-01T15:04:24;79902.00;;;6.10
12007;BMP180;6062;47.294;12.182;2023-03-01T15:06:53;79896.00;;;6.20
12007;BMP180;6062;47.294;12.182;2023-03-01T15:09:21;79896.00;;;6.30
12007;BMP180;6062;47.294;12.182;2023-03-01T15:11:47;79899.00;;;6.50
12007;BMP180;6062;47.294;12.182;2023-03-01T15:16:52;79906.00;;;6.60
12007;BMP180;6062;47.294;12.182;2023-03-01T15:19:19;79899.00;;;6.70
12007;BMP180;6062;47.294;12.182;2023-03-01T15:21:48;79910.00;;;6.60
12007;BMP180;6062;47.294;12.182;2023-03-01T15:24:24;79900.00;;;6.60
12007;BMP180;6062;47.294;12.182;2023-03-01T15:26:58;79894.00;;;6.50
12007;BMP180;6062;47.294;12.182;2023-03-01T15:29:30;79902.00;;;6.50
12007;BMP180;6062;47.294;12.182;2023-03-01T15:32:04;79894.00;;;6.60
12007;BMP180;6062;47.294;12.182;2023-03-01T15:34:36;79897.00;;;6.60
12007;BMP180;6062;47.294;12.182;2023-03-01T15:37:45;79900.00;;;6.60
12007;BMP180;6062;47.294;12.182;2023-03-01T15:40:29;79900.00;;;6.70
12007;BMP180;6062;47.294;12.182;2023-03-01T15:43:07;79902.00;;;6.70
12007;BMP180;6062;47.294;12.182;2023-03-01T15:45:58;79909.00;;;6.70
12007;BMP180;6062;47.294;12.182;2023-03-01T15:48:24;79906.00;;;6.70
12007;BMP180;6062;47.294;12.182;2023-03-01T15:50:57;79901.00;;;6.80
12007;BMP180;6062;47.294;12.182;2023-03-01T15:53:24;79907.00;;;6.70